sensor_id;sensor_type;location;lat;lon;timestamp;P1;durP1;ratioP1;P2;durP2;ratioP2
7359;SDS011;3720;48.274;7.796;2023-02-26T00:01:30;2.60;;;1.50;;
7359;SDS011;3720;48.274;7.796;2023-02-26T00:04:03;4.15;;;1.67;;
7359;SDS011;3720;48.274;7.796;2023-02-26T00:06:37;3.45;;;1.42;;
7359;SDS011;3720;48.274;7.796;2023-02-26T00:09:21;2.95;;;1.48;;
7359;SDS011;3720;48.274;7.796;2023-02-26T00:11:55;3.70;;;1.58;;
7359;SDS011;3720;48.274;7.796;2023-02-26T00:14:28;3.20;;;1.70;;
7359;SDS011;3720;48.274;7.796;2023-02-26T00:17:12;4.03;;;1.70;;
7359;SDS011;3720;48.274;7.796;2023-02-26T00:19:53;3.30;;;1.73;;
7359;SDS011;3720;48.274;7.796;2023-02-26T00:22:26;3.35;;;1.80;;
7359;SDS011;3720;48.274;7.796;2023-02-26T00:24:58;4.40;;;1.90;;
7359;SDS011;3720;48.274;7.796;2023-02-26T00:27:32;3.95;;;1.98;;
7359;SDS011;3720;48.274;7.796;2023-02-26T00:30:05;3.92;;;1.80;;
7359;SDS011;3720;48.274;7.796;2023-02-26T00:32:39;3.92;;;2.03;;
7359;SDS011;3720;48.274;7.796;2023-02-26T00:35:12;5.60;;;2.00;;
7359;SDS011;3720;48.274;7.796;2023-02-26T00:37:55;4.53;;;1.80;;
7359;SDS011;3720;48.274;7.796;2023-02-26T00:40:34;3.88;;;1.85;;
7359;SDS011;3720;48.274;7.796;2023-02-26T00:43:14;3.33;;;1.70;;
7359;SDS011;3720;48.274;7.796;2023-02-26T00:45:50;4.82;;;1.90;;
7359;SDS011;3720;48.274;7.796;2023-02-26T00:48:36;2.20;;;1.40;;
7359;SDS011;3720;48.274;7.796;2023-02-26T00:51:18;2.95;;;1.60;;
7359;SDS011;3720;48.274;7.796;2023-02-26T00:53:58;3.75;;;2.05;;
7359;SDS011;3720;48.274;7.796;2023-02-26T00:56:38;3.92;;;1.75;;
7359;SDS011;3720;48.274;7.796;2023-02-26T00:59:11;3.80;;;2.00;;
7359;SDS011;3720;48.274;7.796;2023-02-26T01:01:43;3.70;;;1.90;;
7359;SDS011;3720;48.274;7.796;2023-02-26T01:04:17;3.95;;;2.00;;
7359;SDS011;3720;48.274;7.796;2023-02-26T01:06:52;3.58;;;1.70;;
7359;SDS011;3720;48.274;7.796;2023-02-26T01:09:26;5.70;;;1.98;;
7359;SDS011;3720;48.274;7.796;2023-02-26T01:12:00;5.40;;;1.80;;
7359;SDS011;3720;48.274;7.796;2023-02-26T01:14:37;3.42;;;1.77;;
7359;SDS011;3720;48.274;7.796;2023-02-26T01:17:11;3.65;;;1.70;;
7359;SDS011;3720;48.274;7.796;2023-02-26T01:19:48;3.30;;;1.83;;
7359;SDS011;3720;48.274;7.796;2023-02-26T01:22:24;3.33;;;1.70;;
7359;SDS011;3720;48.274;7.796;2023-02-26T01:25:04;4.53;;;1.77;;
7359;SDS011;3720;48.274;7.796;2023-02-26T01:27:39;3.55;;;1.83;;
7359;SDS011;3720;48.274;7.796;2023-02-26T01:30:13;4.20;;;1.63;;
7359;SDS011;3720;48.274;7.796;2023-02-26T01:32:47;3.15;;;1.70;;
7359;SDS011;3720;48.274;7.796;2023-02-26T01:35:29;3.47;;;1.65;;
7359;SDS011;3720;48.274;7.796;2023-02-26T01:38:12;2.38;;;1.50;;
7359;SDS011;3720;48.274;7.796;2023-02-26T01:44:02;3.05;;;1.70;;
7359;SDS011;3720;48.274;7.796;2023-02-26T01:46:49;3.08;;;1.80;;
7359;SDS011;3720;48.274;7.796;2023-02-26T01:49:32;3.30;;;1.85;;
7359;SDS011;3720;48.274;7.796;2023-02-26T01:52:05;4.00;;;1.98;;
7359;SDS011;3720;48.274;7.796;2023-02-26T01:54:38;3.58;;;2.15;;
7359;SDS011;3720;48.274;7.796;2023-02-26T01:57:11;4.53;;;2.05;;
7359;SDS011;3720;48.274;7.796;2023-02-26T01:59:46;4.50;;;2.50;;
7359;SDS011;3720;48.274;7.796;2023-02-26T02:02:22;5.85;;;2.40;;
7359;SDS011;3720;48.274;7.796;2023-02-26T02:04:55;4.82;;;2.17;;
7359;SDS011;3720;48.274;7.796;2023-02-26T02:07:28;4.40;;;2.22;;
7359;SDS011;3720;48.274;7.796;2023-02-26T02:10:00;4.78;;;2.22;;
7359;SDS011;3720;48.274;7.796;2023-02-26T02:12:34;4.97;;;2.40;;
7359;SDS011;3720;48.274;7.796;2023-02-26T02:15:12;4.25;;;2.20;;
7359;SDS011;3720;48.274;7.796;2023-02-26T02:17:52;4.65;;;2.40;;
7359;SDS011;3720;48.274;7.796;2023-02-26T02:23:52;4.90;;;2.30;;
7359;SDS011;3720;48.274;7.796;2023-02-26T02:26:40;3.65;;;2.42;;
7359;SDS011;3720;48.274;7.796;2023-02-26T02:29:27;4.68;;;2.08;;
7359;SDS011;3720;48.274;7.796;2023-02-26T02:32:35;5.57;;;2.40;;
7359;SDS011;3720;48.274;7.796;2023-02-26T02:35:12;7.90;;;2.30;;
7359;SDS011;3720;48.274;7.796;2023-02-26T02:37:50;5.45;;;2.63;;
7359;SDS011;3720;48.274;7.796;2023-02-26T02:40:27;3.90;;;2.50;;
7359;SDS011;3720;48.274;7.796;2023-02-26T02:43:03;6.15;;;2.67;;
7359;SDS011;3720;48.274;7.796;2023-02-26T02:45:39;7.75;;;2.70;;
7359;SDS011;3720;48.274;7.796;2023-02-26T02:48:17;6.78;;;2.90;;
7359;SDS011;3720;48.274;7.796;2023-02-26T02:50:56;3.45;;;2.08;;
7359;SDS011;3720;48.274;7.796;2023-02-26T02:53:32;6.07;;;2.60;;
7359;SDS011;3720;48.274;7.796;2023-02-26T02:56:09;6.93;;;2.58;;
7359;SDS011;3720;48.274;7.796;2023-02-26T02:58:48;5.03;;;2.30;;
7359;SDS011;3720;48.274;7.796;2023-02-26T03:01:23;7.85;;;2.40;;
7359;SDS011;3720;48.274;7.796;2023-02-26T03:04:00;5.18;;;2.33;;
7359;SDS011;3720;48.274;7.796;2023-02-26T03:06:37;5.03;;;2.50;;
7359;SDS011;3720;48.274;7.796;2023-02-26T03:09:09;6.18;;;2.50;;
7359;SDS011;3720;48.274;7.796;2023-02-26T03:11:41;5.45;;;2.67;;
7359;SDS011;3720;48.274;7.796;2023-02-26T03:14:13;8.02;;;2.50;;
7359;SDS011;3720;48.274;7.796;2023-02-26T03:16:55;5.97;;;2.60;;
7359;SDS011;3720;48.274;7.796;2023-02-26T03:19:46;3.65;;;2.42;;
7359;SDS011;3720;48.274;7.796;2023-02-26T03:22:27;5.63;;;2.72;;
7359;SDS011;3720;48.274;7.796;2023-02-26T03:25:06;5.25;;;2.70;;
7359;SDS011;3720;48.274;7.796;2023-02-26T03:27:44;7.05;;;2.70;;
7359;SDS011;3720;48.274;7.796;2023-02-26T03:30:21;4.78;;;2.20;;
7359;SDS011;3720;48.274;7.796;2023-02-26T03:33:02;6.35;;;2.70;;
7359;SDS011;3720;48.274;7.796;2023-02-26T03:35:44;4.53;;;2.35;;
7359;SDS011;3720;48.274;7.796;2023-02-26T03:38:23;6.57;;;2.30;;
7359;SDS011;3720;48.274;7.796;2023-02-26T03:41:04;3.67;;;2.17;;
7359;SDS011;3720;48.274;7.796;2023-02-26T03:43:40;3.80;;;2.20;;
7359;SDS011;3720;48.274;7.796;2023-02-26T03:46:16;6.10;;;2.63;;
7359;SDS011;3720;48.274;7.796;2023-02-26T03:48:52;6.20;;;2.40;;
7359;SDS011;3720;48.274;7.796;2023-02-26T03:51:29;4.50;;;2.22;;
7359;SDS011;3720;48.274;7.796;2023-02-26T03:54:03;5.07;;;2.20;;
7359;SDS011;3720;48.274;7.796;2023-02-26T03:59:12;5.53;;;2.33;;
7359;SDS011;3720;48.274;7.796;2023-02-26T04:01:47;4.85;;;2.33;;
7359;SDS011;3720;48.274;7.796;2023-02-26T04:04:24;4.07;;;2.30;;
7359;SDS011;3720;48.274;7.796;2023-02-26T04:07:02;7.43;;;2.58;;
7359;SDS011;3720;48.274;7.796;2023-02-26T04:09:34;4.50;;;2.30;;
7359;SDS011;3720;48.274;7.796;2023-02-26T04:12:06;8.27;;;2.63;;
7359;SDS011;3720;48.274;7.796;2023-02-26T04:14:48;5.28;;;2.40;;
7359;SDS011;3720;48.274;7.796;2023-02-26T04:17:20;4.78;;;2.50;;
7359;SDS011;3720;48.274;7.796;2023-02-26T04:19:52;6.65;;;2.60;;
7359;SDS011;3720;48.274;7.796;2023-02-26T04:22:26;6.72;;;2.40;;
7359;SDS011;3720;48.274;7.796;2023-02-26T04:24:58;5.03;;;2.40;;
7359;SDS011;3720;48.274;7.796;2023-02-26T04:27:30;7.45;;;2.42;;
7359;SDS011;3720;48.274;7.796;2023-02-26T04:30:02;4.10;;;2.33;;
7359;SDS011;3720;48.274;7.796;2023-02-26T04:32:34;4.45;;;2.38;;
7359;SDS011;3720;48.274;7.796;2023-02-26T04:35:06;4.88;;;2.33;;
7359;SDS011;3720;48.274;7.796;2023-02-26T04:37:40;5.32;;;2.50;;
7359;SDS011;3720;48.274;7.796;2023-02-26T04:40:12;5.93;;;2.60;;
7359;SDS011;3720;48.274;7.796;2023-02-26T04:42:44;5.30;;;2.50;;
7359;SDS011;3720;48.274;7.796;2023-02-26T04:45:16;6.65;;;2.60;;
7359;SDS011;3720;48.274;7.796;2023-02-26T04:47:48;8.63;;;2.67;;
7359;SDS011;3720;48.274;7.796;2023-02-26T04:50:20;6.28;;;2.63;;
7359;SDS011;3720;48.274;7.796;2023-02-26T04:52:53;5.20;;;2.47;;
7359;SDS011;3720;48.274;7.796;2023-02-26T04:55:25;6.03;;;2.77;;
7359;SDS011;3720;48.274;7.796;2023-02-26T04:57:57;5.20;;;2.60;;
7359;SDS011;3720;48.274;7.796;2023-02-26T05:00:29;6.40;;;2.90;;
7359;SDS011;3720;48.274;7.796;2023-02-26T05:03:01;6.07;;;2.92;;
7359;SDS011;3720;48.274;7.796;2023-02-26T05:05:33;8.63;;;3.80;;
7359;SDS011;3720;48.274;7.796;2023-02-26T05:08:06;7.20;;;3.53;;
7359;SDS011;3720;48.274;7.796;2023-02-26T05:10:38;6.10;;;3.47;;
7359;SDS011;3720;48.274;7.796;2023-02-26T05:13:10;6.70;;;3.30;;
7359;SDS011;3720;48.274;7.796;2023-02-26T05:15:42;5.40;;;3.28;;
7359;SDS011;3720;48.274;7.796;2023-02-26T05:18:14;8.35;;;3.42;;
7359;SDS011;3720;48.274;7.796;2023-02-26T05:20:50;7.07;;;3.70;;
7359;SDS011;3720;48.274;7.796;2023-02-26T05:23:24;5.68;;;3.20;;
7359;SDS011;3720;48.274;7.796;2023-02-26T05:25:56;6.22;;;3.17;;
7359;SDS011;3720;48.274;7.796;2023-02-26T05:28:29;9.07;;;3.17;;
7359;SDS011;3720;48.274;7.796;2023-02-26T05:31:02;5.57;;;3.15;;
7359;SDS011;3720;48.274;7.796;2023-02-26T05:33:35;6.90;;;3.47;;
7359;SDS011;3720;48.274;7.796;2023-02-26T05:36:07;6.33;;;3.00;;
7359;SDS011;3720;48.274;7.796;2023-02-26T05:38:41;7.15;;;3.20;;
7359;SDS011;3720;48.274;7.796;2023-02-26T05:41:14;7.20;;;3.20;;
7359;SDS011;3720;48.274;7.796;2023-02-26T05:43:46;5.87;;;3.30;;
7359;SDS011;3720;48.274;7.796;2023-02-26T05:46:18;6.57;;;3.37;;
7359;SDS011;3720;48.274;7.796;2023-02-26T05:48:50;6.57;;;3.30;;
7359;SDS011;3720;48.274;7.796;2023-02-26T05:51:22;6.20;;;3.35;;
7359;SDS011;3720;48.274;7.796;2023-02-26T05:53:55;8.70;;;3.60;;
7359;SDS011;3720;48.274;7.796;2023-02-26T05:56:27;6.75;;;3.17;;
7359;SDS011;3720;48.274;7.796;2023-02-26T05:58:59;5.43;;;2.70;;
7359;SDS011;3720;48.274;7.796;2023-02-26T06:01:31;4.43;;;2.93;;
7359;SDS011;3720;48.274;7.796;2023-02-26T06:04:03;7.55;;;3.30;;
7359;SDS011;3720;48.274;7.796;2023-02-26T06:06:35;7.72;;;3.10;;
7359;SDS011;3720;48.274;7.796;2023-02-26T06:09:09;4.67;;;3.27;;
7359;SDS011;3720;48.274;7.796;2023-02-26T06:11:41;6.75;;;3.13;;
7359;SDS011;3720;48.274;7.796;2023-02-26T06:14:13;7.03;;;3.35;;
7359;SDS011;3720;48.274;7.796;2023-02-26T06:16:45;6.22;;;3.35;;
7359;SDS011;3720;48.274;7.796;2023-02-26T06:19:17;4.82;;;3.08;;
7359;SDS011;3720;48.274;7.796;2023-02-26T06:21:50;7.03;;;3.17;;
7359;SDS011;3720;48.274;7.796;2023-02-26T06:24:23;6.60;;;3.25;;
7359;SDS011;3720;48.274;7.796;2023-02-26T06:26:56;7.38;;;3.20;;
7359;SDS011;3720;48.274;7.796;2023-02-26T06:29:28;6.90;;;3.20;;
7359;SDS011;3720;48.274;7.796;2023-02-26T06:31:59;5.30;;;3.13;;
7359;SDS011;3720;48.274;7.796;2023-02-26T06:34:31;8.00;;;3.50;;
7359;SDS011;3720;48.274;7.796;2023-02-26T06:37:04;9.07;;;3.20;;
7359;SDS011;3720;48.274;7.796;2023-02-26T06:39:37;5.90;;;3.10;;
7359;SDS011;3720;48.274;7.796;2023-02-26T06:42:09;6.80;;;3.73;;
7359;SDS011;3720;48.274;7.796;2023-02-26T06:44:41;10.15;;;3.75;;
7359;SDS011;3720;48.274;7.796;2023-02-26T06:47:13;6.80;;;3.60;;
7359;SDS011;3720;48.274;7.796;2023-02-26T06:49:45;6.07;;;3.40;;
7359;SDS011;3720;48.274;7.796;2023-02-26T06:52:18;5.25;;;3.33;;
7359;SDS011;3720;48.274;7.796;2023-02-26T06:54:51;5.70;;;3.30;;
7359;SDS011;3720;48.274;7.796;2023-02-26T06:57:23;5.60;;;3.00;;
7359;SDS011;3720;48.274;7.796;2023-02-26T06:59:55;6.32;;;3.20;;
7359;SDS011;3720;48.274;7.796;2023-02-26T07:02:26;5.67;;;3.40;;
7359;SDS011;3720;48.274;7.796;2023-02-26T07:04:58;6.97;;;3.92;;
7359;SDS011;3720;48.274;7.796;2023-02-26T07:07:30;8.32;;;3.70;;
7359;SDS011;3720;48.274;7.796;2023-02-26T07:10:04;7.35;;;3.60;;
7359;SDS011;3720;48.274;7.796;2023-02-26T07:12:37;6.80;;;3.80;;
7359;SDS011;3720;48.274;7.796;2023-02-26T07:15:09;10.63;;;3.95;;
7359;SDS011;3720;48.274;7.796;2023-02-26T07:17:41;8.67;;;4.40;;
7359;SDS011;3720;48.274;7.796;2023-02-26T07:20:13;7.63;;;4.10;;
7359;SDS011;3720;48.274;7.796;2023-02-26T07:22:47;6.80;;;3.70;;
7359;SDS011;3720;48.274;7.796;2023-02-26T07:25:20;9.00;;;3.60;;
7359;SDS011;3720;48.274;7.796;2023-02-26T07:27:53;8.60;;;3.80;;
7359;SDS011;3720;48.274;7.796;2023-02-26T07:30:25;8.55;;;3.65;;
7359;SDS011;3720;48.274;7.796;2023-02-26T07:32:57;7.37;;;4.10;;
7359;SDS011;3720;48.274;7.796;2023-02-26T07:35:29;7.88;;;3.80;;
7359;SDS011;3720;48.274;7.796;2023-02-26T07:38:01;5.22;;;3.38;;
7359;SDS011;3720;48.274;7.796;2023-02-26T07:40:34;9.60;;;4.03;;
7359;SDS011;3720;48.274;7.796;2023-02-26T07:43:06;8.60;;;4.15;;
7359;SDS011;3720;48.274;7.796;2023-02-26T07:45:38;7.35;;;4.03;;
7359;SDS011;3720;48.274;7.796;2023-02-26T07:48:10;9.40;;;4.30;;
7359;SDS011;3720;48.274;7.796;2023-02-26T07:50:42;9.65;;;4.55;;
7359;SDS011;3720;48.274;7.796;2023-02-26T07:53:14;8.00;;;4.10;;
7359;SDS011;3720;48.274;7.796;2023-02-26T07:55:48;9.40;;;4.43;;
7359;SDS011;3720;48.274;7.796;2023-02-26T07:58:20;8.80;;;4.10;;
7359;SDS011;3720;48.274;7.796;2023-02-26T08:00:52;6.25;;;3.58;;
7359;SDS011;3720;48.274;7.796;2023-02-26T08:03:24;7.95;;;3.83;;
7359;SDS011;3720;48.274;7.796;2023-02-26T08:05:56;5.35;;;3.30;;
7359;SDS011;3720;48.274;7.796;2023-02-26T08:08:29;8.93;;;4.10;;
7359;SDS011;3720;48.274;7.796;2023-02-26T08:11:03;6.72;;;3.80;;
7359;SDS011;3720;48.274;7.796;2023-02-26T08:13:35;8.07;;;3.65;;
7359;SDS011;3720;48.274;7.796;2023-02-26T08:16:08;7.68;;;3.90;;
7359;SDS011;3720;48.274;7.796;2023-02-26T08:18:39;8.52;;;3.80;;
7359;SDS011;3720;48.274;7.796;2023-02-26T08:21:11;9.15;;;4.30;;
7359;SDS011;3720;48.274;7.796;2023-02-26T08:23:43;10.75;;;4.20;;
7359;SDS011;3720;48.274;7.796;2023-02-26T08:26:17;11.20;;;4.05;;
7359;SDS011;3720;48.274;7.796;2023-02-26T08:28:49;6.60;;;3.50;;
7359;SDS011;3720;48.274;7.796;2023-02-26T08:31:21;7.13;;;3.63;;
7359;SDS011;3720;48.274;7.796;2023-02-26T08:33:53;10.98;;;3.67;;
7359;SDS011;3720;48.274;7.796;2023-02-26T08:36:25;8.25;;;3.72;;
7359;SDS011;3720;48.274;7.796;2023-02-26T08:38:57;10.07;;;4.10;;
7359;SDS011;3720;48.274;7.796;2023-02-26T08:41:31;8.77;;;4.07;;
7359;SDS011;3720;48.274;7.796;2023-02-26T08:44:05;9.20;;;3.72;;
7359;SDS011;3720;48.274;7.796;2023-02-26T08:46:37;11.77;;;3.95;;
7359;SDS011;3720;48.274;7.796;2023-02-26T08:49:09;9.23;;;3.88;;
7359;SDS011;3720;48.274;7.796;2023-02-26T08:51:41;6.43;;;3.67;;
7359;SDS011;3720;48.274;7.796;2023-02-26T08:54:13;9.38;;;4.43;;
7359;SDS011;3720;48.274;7.796;2023-02-26T08:56:47;9.05;;;3.85;;
7359;SDS011;3720;48.274;7.796;2023-02-26T08:59:19;10.57;;;4.07;;
7359;SDS011;3720;48.274;7.796;2023-02-26T09:01:51;8.98;;;3.83;;
7359;SDS011;3720;48.274;7.796;2023-02-26T09:04:22;8.32;;;3.58;;
7359;SDS011;3720;48.274;7.796;2023-02-26T09:06:55;7.32;;;3.53;;
7359;SDS011;3720;48.274;7.796;2023-02-26T09:09:27;6.43;;;3.80;;
7359;SDS011;3720;48.274;7.796;2023-02-26T09:12:01;7.07;;;3.40;;
7359;SDS011;3720;48.274;7.796;2023-02-26T09:14:33;8.77;;;3.80;;
7359;SDS011;3720;48.274;7.796;2023-02-26T09:17:05;8.10;;;3.80;;
7359;SDS011;3720;48.274;7.796;2023-02-26T09:19:36;10.25;;;4.10;;
7359;SDS011;3720;48.274;7.796;2023-02-26T09:22:08;7.95;;;3.60;;
7359;SDS011;3720;48.274;7.796;2023-02-26T09:24:40;7.97;;;3.88;;
7359;SDS011;3720;48.274;7.796;2023-02-26T09:27:13;7.75;;;3.38;;
7359;SDS011;3720;48.274;7.796;2023-02-26T09:29:46;7.05;;;3.45;;
7359;SDS011;3720;48.274;7.796;2023-02-26T09:32:17;8.63;;;3.28;;
7359;SDS011;3720;48.274;7.796;2023-02-26T09:34:49;8.25;;;3.75;;
7359;SDS011;3720;48.274;7.796;2023-02-26T09:37:21;12.10;;;5.10;;
7359;SDS011;3720;48.274;7.796;2023-02-26T09:39:53;11.65;;;3.80;;
7359;SDS011;3720;48.274;7.796;2023-02-26T09:42:36;10.30;;;4.30;;
7359;SDS011;3720;48.274;7.796;2023-02-26T09:45:20;7.47;;;3.72;;
7359;SDS011;3720;48.274;7.796;2023-02-26T09:47:57;8.45;;;3.97;;
7359;SDS011;3720;48.274;7.796;2023-02-26T09:50:34;6.03;;;3.38;;
7359;SDS011;3720;48.274;7.796;2023-02-26T09:53:13;9.20;;;3.13;;
7359;SDS011;3720;48.274;7.796;2023-02-26T09:55:50;7.45;;;2.90;;
7359;SDS011;3720;48.274;7.796;2023-02-26T09:58:28;5.03;;;3.13;;
7359;SDS011;3720;48.274;7.796;2023-02-26T10:01:04;8.30;;;4.32;;
7359;SDS011;3720;48.274;7.796;2023-02-26T10:03:47;7.35;;;3.47;;
7359;SDS011;3720;48.274;7.796;2023-02-26T10:06:26;9.40;;;4.95;;
7359;SDS011;3720;48.274;7.796;2023-02-26T10:09:05;11.60;;;3.00;;
7359;SDS011;3720;48.274;7.796;2023-02-26T10:11:54;7.85;;;4.30;;
7359;SDS011;3720;48.274;7.796;2023-02-26T10:14:33;8.13;;;3.55;;
7359;SDS011;3720;48.274;7.796;2023-02-26T10:17:11;6.20;;;3.05;;
7359;SDS011;3720;48.274;7.796;2023-02-26T10:19:50;4.93;;;2.90;;
7359;SDS011;3720;48.274;7.796;2023-02-26T10:22:26;6.57;;;3.10;;
7359;SDS011;3720;48.274;7.796;2023-02-26T10:25:04;6.03;;;2.85;;
7359;SDS011;3720;48.274;7.796;2023-02-26T10:30:20;8.10;;;3.10;;
7359;SDS011;3720;48.274;7.796;2023-02-26T10:32:59;5.28;;;2.25;;
7359;SDS011;3720;48.274;7.796;2023-02-26T10:35:39;5.93;;;2.90;;
7359;SDS011;3720;48.274;7.796;2023-02-26T10:38:22;7.80;;;3.47;;
7359;SDS011;3720;48.274;7.796;2023-02-26T10:40:58;5.35;;;2.55;;
7359;SDS011;3720;48.274;7.796;2023-02-26T10:43:34;5.00;;;2.45;;
7359;SDS011;3720;48.274;7.796;2023-02-26T10:48:55;4.22;;;2.10;;
7359;SDS011;3720;48.274;7.796;2023-02-26T10:51:37;8.45;;;3.47;;
7359;SDS011;3720;48.274;7.796;2023-02-26T10:54:12;6.53;;;2.58;;
7359;SDS011;3720;48.274;7.796;2023-02-26T10:56:47;6.28;;;2.78;;
7359;SDS011;3720;48.274;7.796;2023-02-26T10:59:19;7.05;;;2.80;;
7359;SDS011;3720;48.274;7.796;2023-02-26T11:01:54;7.20;;;3.25;;
7359;SDS011;3720;48.274;7.796;2023-02-26T11:04:27;6.45;;;2.88;;
7359;SDS011;3720;48.274;7.796;2023-02-26T11:07:00;4.95;;;2.83;;
7359;SDS011;3720;48.274;7.796;2023-02-26T11:09:35;5.03;;;2.22;;
7359;SDS011;3720;48.274;7.796;2023-02-26T11:12:11;4.20;;;2.42;;
7359;SDS011;3720;48.274;7.796;2023-02-26T11:14:46;6.13;;;2.70;;
7359;SDS011;3720;48.274;7.796;2023-02-26T11:17:21;5.15;;;2.40;;
7359;SDS011;3720;48.274;7.796;2023-02-26T11:19:58;5.45;;;2.25;;
7359;SDS011;3720;48.274;7.796;2023-02-26T11:22:34;5.57;;;2.60;;
7359;SDS011;3720;48.274;7.796;2023-02-26T11:25:11;5.40;;;2.53;;
7359;SDS011;3720;48.274;7.796;2023-02-26T11:27:44;5.10;;;2.67;;
7359;SDS011;3720;48.274;7.796;2023-02-26T11:30:20;3.83;;;2.08;;
7359;SDS011;3720;48.274;7.796;2023-02-26T11:32:57;5.30;;;2.80;;
7359;SDS011;3720;48.274;7.796;2023-02-26T11:35:34;8.82;;;2.60;;
7359;SDS011;3720;48.274;7.796;2023-02-26T11:38:07;5.13;;;2.60;;
7359;SDS011;3720;48.274;7.796;2023-02-26T11:40:47;5.43;;;2.35;;
7359;SDS011;3720;48.274;7.796;2023-02-26T11:43:23;3.10;;;1.70;;
7359;SDS011;3720;48.274;7.796;2023-02-26T11:46:04;5.40;;;2.60;;
7359;SDS011;3720;48.274;7.796;2023-02-26T11:48:39;6.15;;;3.25;;
7359;SDS011;3720;48.274;7.796;2023-02-26T11:53:47;3.92;;;2.35;;
7359;SDS011;3720;48.274;7.796;2023-02-26T11:56:25;4.18;;;2.40;;
7359;SDS011;3720;48.274;7.796;2023-02-26T11:59:07;7.03;;;3.60;;
7359;SDS011;3720;48.274;7.796;2023-02-26T12:01:47;4.50;;;2.50;;
7359;SDS011;3720;48.274;7.796;2023-02-26T12:04:22;3.85;;;2.30;;
7359;SDS011;3720;48.274;7.796;2023-02-26T12:06:55;4.28;;;2.47;;
7359;SDS011;3720;48.274;7.796;2023-02-26T12:09:27;6.10;;;2.22;;
7359;SDS011;3720;48.274;7.796;2023-02-26T12:12:02;3.92;;;2.20;;
7359;SDS011;3720;48.274;7.796;2023-02-26T12:14:49;4.20;;;2.20;;
7359;SDS011;3720;48.274;7.796;2023-02-26T12:17:48;5.75;;;2.50;;
7359;SDS011;3720;48.274;7.796;2023-02-26T12:20:37;5.68;;;2.53;;
7359;SDS011;3720;48.274;7.796;2023-02-26T12:23:18;3.53;;;2.00;;
7359;SDS011;3720;48.274;7.796;2023-02-26T12:26:15;5.60;;;2.70;;
7359;SDS011;3720;48.274;7.796;2023-02-26T12:29:06;4.57;;;2.13;;
7359;SDS011;3720;48.274;7.796;2023-02-26T12:37:53;4.22;;;2.47;;
7359;SDS011;3720;48.274;7.796;2023-02-26T12:40:43;4.35;;;2.25;;
7359;SDS011;3720;48.274;7.796;2023-02-26T12:43:23;4.50;;;2.50;;
7359;SDS011;3720;48.274;7.796;2023-02-26T12:46:05;7.40;;;2.00;;
7359;SDS011;3720;48.274;7.796;2023-02-26T12:48:50;5.30;;;2.30;;
7359;SDS011;3720;48.274;7.796;2023-02-26T12:52:02;5.05;;;2.40;;
7359;SDS011;3720;48.274;7.796;2023-02-26T12:54:50;3.58;;;2.30;;
7359;SDS011;3720;48.274;7.796;2023-02-26T12:57:42;4.65;;;2.00;;
7359;SDS011;3720;48.274;7.796;2023-02-26T13:00:22;4.75;;;2.63;;
7359;SDS011;3720;48.274;7.796;2023-02-26T13:03:17;5.47;;;2.15;;
7359;SDS011;3720;48.274;7.796;2023-02-26T13:09:06;2.70;;;1.50;;
7359;SDS011;3720;48.274;7.796;2023-02-26T13:11:49;2.17;;;1.42;;
7359;SDS011;3720;48.274;7.796;2023-02-26T13:17:08;3.20;;;1.65;;
7359;SDS011;3720;48.274;7.796;2023-02-26T13:19:46;2.67;;;1.40;;
7359;SDS011;3720;48.274;7.796;2023-02-26T13:22:21;2.30;;;1.40;;
7359;SDS011;3720;48.274;7.796;2023-02-26T13:24:59;3.20;;;1.83;;
7359;SDS011;3720;48.274;7.796;2023-02-26T13:27:35;2.75;;;1.50;;
7359;SDS011;3720;48.274;7.796;2023-02-26T13:30:13;1.70;;;1.30;;
7359;SDS011;3720;48.274;7.796;2023-02-26T13:32:53;2.17;;;1.70;;
7359;SDS011;3720;48.274;7.796;2023-02-26T13:35:27;3.38;;;1.85;;
7359;SDS011;3720;48.274;7.796;2023-02-26T13:38:04;2.63;;;1.63;;
7359;SDS011;3720;48.274;7.796;2023-02-26T13:40:46;3.75;;;2.20;;
7359;SDS011;3720;48.274;7.796;2023-02-26T13:43:33;3.90;;;2.20;;
7359;SDS011;3720;48.274;7.796;2023-02-26T13:46:25;3.40;;;2.10;;
7359;SDS011;3720;48.274;7.796;2023-02-26T13:49:08;5.38;;;2.70;;
7359;SDS011;3720;48.274;7.796;2023-02-26T13:51:47;4.55;;;2.45;;
7359;SDS011;3720;48.274;7.796;2023-02-26T13:54:32;6.03;;;2.75;;
7359;SDS011;3720;48.274;7.796;2023-02-26T13:57:21;3.20;;;2.28;;
7359;SDS011;3720;48.274;7.796;2023-02-26T14:00:02;3.78;;;2.33;;
7359;SDS011;3720;48.274;7.796;2023-02-26T14:02:43;4.45;;;2.10;;
7359;SDS011;3720;48.274;7.796;2023-02-26T14:08:29;5.00;;;2.80;;
7359;SDS011;3720;48.274;7.796;2023-02-26T14:11:24;3.78;;;2.67;;
7359;SDS011;3720;48.274;7.796;2023-02-26T14:14:21;7.03;;;3.50;;
7359;SDS011;3720;48.274;7.796;2023-02-26T14:20:15;5.25;;;2.70;;
7359;SDS011;3720;48.274;7.796;2023-02-26T14:22:58;6.07;;;3.28;;
7359;SDS011;3720;48.274;7.796;2023-02-26T14:25:45;4.18;;;2.70;;
7359;SDS011;3720;48.274;7.796;2023-02-26T14:28:30;3.72;;;2.55;;
7359;SDS011;3720;48.274;7.796;2023-02-26T14:31:16;4.68;;;2.70;;
7359;SDS011;3720;48.274;7.796;2023-02-26T14:34:02;4.80;;;2.20;;
7359;SDS011;3720;48.274;7.796;2023-02-26T14:36:44;3.30;;;2.40;;
7359;SDS011;3720;48.274;7.796;2023-02-26T14:39:23;2.42;;;1.83;;
7359;SDS011;3720;48.274;7.796;2023-02-26T14:42:00;2.92;;;1.90;;
7359;SDS011;3720;48.274;7.796;2023-02-26T14:44:36;2.15;;;1.60;;
7359;SDS011;3720;48.274;7.796;2023-02-26T14:47:11;2.85;;;1.90;;
7359;SDS011;3720;48.274;7.796;2023-02-26T14:49:46;5.05;;;2.50;;
7359;SDS011;3720;48.274;7.796;2023-02-26T14:55:34;4.47;;;2.80;;
7359;SDS011;3720;48.274;7.796;2023-02-26T14:58:19;3.72;;;2.00;;
7359;SDS011;3720;48.274;7.796;2023-02-26T15:01:11;3.75;;;1.60;;
7359;SDS011;3720;48.274;7.796;2023-02-26T15:04:04;5.47;;;2.08;;
7359;SDS011;3720;48.274;7.796;2023-02-26T15:07:07;2.17;;;1.63;;
7359;SDS011;3720;48.274;7.796;2023-02-26T15:10:06;2.42;;;1.70;;
7359;SDS011;3720;48.274;7.796;2023-02-26T15:12:52;4.68;;;2.25;;
7359;SDS011;3720;48.274;7.796;2023-02-26T15:15:37;3.40;;;2.17;;
7359;SDS011;3720;48.274;7.796;2023-02-26T15:18:26;2.72;;;1.80;;
7359;SDS011;3720;48.274;7.796;2023-02-26T15:21:14;5.22;;;2.30;;
7359;SDS011;3720;48.274;7.796;2023-02-26T15:23:52;3.60;;;2.28;;
7359;SDS011;3720;48.274;7.796;2023-02-26T15:26:26;2.47;;;1.65;;
7359;SDS011;3720;48.274;7.796;2023-02-26T15:29:01;2.97;;;1.60;;
7359;SDS011;3720;48.274;7.796;2023-02-26T15:31:39;2.85;;;1.50;;
7359;SDS011;3720;48.274;7.796;2023-02-26T15:34:14;1.80;;;1.38;;
7359;SDS011;3720;48.274;7.796;2023-02-26T15:36:49;2.58;;;1.27;;
7359;SDS011;3720;48.274;7.796;2023-02-26T15:39:24;2.00;;;1.37;;
7359;SDS011;3720;48.274;7.796;2023-02-26T15:41:56;2.28;;;1.20;;
7359;SDS011;3720;48.274;7.796;2023-02-26T15:44:29;1.30;;;1.08;;
7359;SDS011;3720;48.274;7.796;2023-02-26T15:47:03;1.88;;;1.33;;
7359;SDS011;3720;48.274;7.796;2023-02-26T15:49:36;3.15;;;1.38;;
7359;SDS011;3720;48.274;7.796;2023-02-26T15:52:11;2.00;;;1.25;;
7359;SDS011;3720;48.274;7.796;2023-02-26T15:54:48;2.40;;;1.70;;
7359;SDS011;3720;48.274;7.796;2023-02-26T15:57:22;3.00;;;1.77;;
7359;SDS011;3720;48.274;7.796;2023-02-26T16:00:00;2.88;;;1.50;;
7359;SDS011;3720;48.274;7.796;2023-02-26T16:02:39;1.55;;;1.30;;
7359;SDS011;3720;48.274;7.796;2023-02-26T16:05:13;1.98;;;1.50;;
7359;SDS011;3720;48.274;7.796;2023-02-26T16:07:45;2.00;;;1.40;;
7359;SDS011;3720;48.274;7.796;2023-02-26T16:10:26;2.63;;;1.70;;
7359;SDS011;3720;48.274;7.796;2023-02-26T16:12:59;2.67;;;2.00;;
7359;SDS011;3720;48.274;7.796;2023-02-26T16:15:34;3.47;;;2.10;;
7359;SDS011;3720;48.274;7.796;2023-02-26T16:18:12;3.25;;;2.10;;
7359;SDS011;3720;48.274;7.796;2023-02-26T16:20:46;2.28;;;1.73;;
7359;SDS011;3720;48.274;7.796;2023-02-26T16:23:21;2.47;;;1.77;;
7359;SDS011;3720;48.274;7.796;2023-02-26T16:25:57;2.33;;;1.63;;
7359;SDS011;3720;48.274;7.796;2023-02-26T16:28:31;2.70;;;1.80;;
7359;SDS011;3720;48.274;7.796;2023-02-26T16:31:06;2.85;;;1.88;;
7359;SDS011;3720;48.274;7.796;2023-02-26T16:33:52;3.95;;;1.90;;
7359;SDS011;3720;48.274;7.796;2023-02-26T16:36:29;1.98;;;1.60;;
7359;SDS011;3720;48.274;7.796;2023-02-26T16:39:09;2.67;;;1.92;;
7359;SDS011;3720;48.274;7.796;2023-02-26T16:42:07;1.98;;;1.55;;
7359;SDS011;3720;48.274;7.796;2023-02-26T16:44:45;2.90;;;2.00;;
7359;SDS011;3720;48.274;7.796;2023-02-26T16:47:20;2.38;;;1.80;;
7359;SDS011;3720;48.274;7.796;2023-02-26T16:49:52;2.63;;;1.90;;
7359;SDS011;3720;48.274;7.796;2023-02-26T16:52:25;3.40;;;1.60;;